Time;durP1;ratioP1;P1;durP2;ratioP2;P2;SDS_P1;SDS_P2;PMS_P1;PMS_P2;Temp;Humidity;BMP_temperature;BMP_pressure;BME280_temperature;BME280_humidity;BME280_pressure;Samples;Min_cycle;Max_cycle;Signal;HPM_P1;HPM_P2
2022/01/22 00:01:12;;;;;;;13.50;7.87;;;6.90;99.90;;;;;;5011943;28;20197;-68
2022/01/22 00:03:38;;;;;;;12.17;8.10;;;6.90;99.90;;;;;;5016185;28;20166;-68
2022/01/22 00:06:04;;;;;;;16.17;8.07;;;6.90;99.90;;;;;;5016156;28;20175;-69
2022/01/22 00:08:30;;;;;;;15.07;8.33;;;6.90;99.90;;;;;;5015594;28;20669;-69
2022/01/22 00:10:56;;;;;;;18.23;9.03;;;6.80;99.90;;;;;;5016071;28;20177;-69
2022/01/22 00:16:05;;;;;;;13.97;8.17;;;6.90;99.90;;;;;;5016270;28;20653;-68
2022/01/22 00:18:31;;;;;;;11.77;8.53;;;6.70;99.90;;;;;;5016163;28;20166;-68
2022/01/22 00:20:56;;;;;;;18.97;8.50;;;6.70;99.90;;;;;;5015856;28;20171;-68
2022/01/22 00:23:26;;;;;;;16.73;8.87;;;6.70;99.90;;;;;;5015358;28;20186;-68
2022/01/22 00:25:53;;;;;;;15.43;8.53;;;6.70;99.90;;;;;;5016509;28;20198;-69
2022/01/22 00:28:18;;;;;;;12.37;8.67;;;6.70;99.90;;;;;;5035562;28;20232;-69
2022/01/22 00:30:44;;;;;;;15.30;8.27;;;6.70;99.90;;;;;;5035413;28;20626;-68
2022/01/22 00:33:09;;;;;;;13.13;9.30;;;6.80;99.90;;;;;;5035519;28;20681;-68
2022/01/22 00:35:35;;;;;;;14.47;9.27;;;6.80;99.90;;;;;;5035295;28;20174;-69
2022/01/22 00:38:01;;;;;;;20.17;9.53;;;6.80;99.90;;;;;;5035151;28;20178;-69
2022/01/22 00:40:27;;;;;;;18.03;9.57;;;6.70;99.90;;;;;;5034329;28;20201;-68
2022/01/22 00:42:53;;;;;;;14.70;9.90;;;6.70;99.90;;;;;;5035342;28;20177;-67
2022/01/22 00:45:19;;;;;;;17.67;9.73;;;6.70;99.90;;;;;;5035225;28;20194;-68
2022/01/22 00:47:46;;;;;;;15.57;9.60;;;6.60;99.90;;;;;;5035103;28;20260;-68
2022/01/22 00:50:14;;;;;;;14.20;9.47;;;6.50;99.90;;;;;;5035067;28;20170;-68
2022/01/22 00:52:41;;;;;;;15.60;10.10;;;6.60;99.90;;;;;;5034651;28;20201;-68
2022/01/22 00:55:07;;;;;;;18.73;9.77;;;6.60;99.90;;;;;;5035112;28;20177;-69
2022/01/22 00:57:32;;;;;;;14.63;9.97;;;6.50;99.90;;;;;;5035151;28;20167;-68
2022/01/22 00:59:58;;;;;;;16.73;10.07;;;6.50;99.90;;;;;;5035003;28;20692;-68
2022/01/22 01:02:24;;;;;;;17.60;10.90;;;6.60;99.90;;;;;;5034981;28;20173;-69
2022/01/22 01:04:49;;;;;;;17.50;10.80;;;6.60;99.90;;;;;;5034820;28;20166;-67
2022/01/22 01:07:15;;;;;;;14.87;10.30;;;6.50;99.90;;;;;;5033041;28;20209;-68
2022/01/22 01:09:41;;;;;;;19.27;11.23;;;6.50;99.90;;;;;;5034982;28;20313;-67
2022/01/22 01:12:10;;;;;;;17.13;11.03;;;6.60;99.90;;;;;;5034916;28;20231;-68
2022/01/22 01:14:50;;;;;;;17.33;11.07;;;6.60;99.90;;;;;;5034020;28;20170;-68
2022/01/22 01:33:49;;;;;;;17.03;11.53;;;6.70;99.90;;;;;;5034404;28;20180;-68
2022/01/22 01:36:15;;;;;;;14.37;11.17;;;6.80;99.90;;;;;;5033592;28;20162;-68
2022/01/22 01:38:48;;;;;;;15.70;11.43;;;6.70;99.90;;;;;;5034500;28;20196;-68
2022/01/22 01:41:24;;;;;;;15.70;11.37;;;6.70;99.90;;;;;;5034458;28;20201;-69
2022/01/22 01:43:50;;;;;;;20.97;15.60;;;6.70;99.90;;;;;;5034377;28;20204;-67
2022/01/22 01:46:15;;;;;;;16.73;12.17;;;6.70;99.90;;;;;;5034087;28;20174;-68
2022/01/22 01:48:42;;;;;;;14.53;11.43;;;6.70;99.90;;;;;;5033705;28;20245;-68
2022/01/22 01:51:08;;;;;;;15.30;11.60;;;6.90;99.90;;;;;;5033686;28;20162;-68
2022/01/22 01:59:17;;;;;;;18.30;12.00;;;6.90;99.90;;;;;;5051738;28;20618;-68
2022/01/22 02:01:43;;;;;;;16.97;12.40;;;6.90;99.90;;;;;;5051714;28;20174;-68
2022/01/22 02:04:11;;;;;;;21.80;12.63;;;6.90;99.90;;;;;;5051237;28;20177;-67
2022/01/22 02:06:37;;;;;;;19.27;12.83;;;7.00;99.90;;;;;;5051577;28;20197;-68
2022/01/22 02:09:07;;;;;;;15.93;12.03;;;7.00;99.90;;;;;;5051611;28;20173;-68
2022/01/22 02:11:34;;;;;;;17.10;12.03;;;7.00;99.90;;;;;;5051390;28;20177;-68
2022/01/22 02:14:06;;;;;;;18.17;12.33;;;6.90;99.90;;;;;;5051564;28;20184;-68
2022/01/22 02:24:51;;;;;;;19.20;13.27;;;6.70;99.90;;;;;;5051325;28;20235;-68
2022/01/22 02:27:18;;;;;;;15.90;12.43;;;6.60;99.90;;;;;;5051026;28;20233;-68
2022/01/22 02:29:44;;;;;;;17.60;12.63;;;6.70;99.90;;;;;;5051309;28;20177;-67
2022/01/22 02:35:25;;;;;;;21.67;12.80;;;6.70;99.90;;;;;;5032988;28;20169;-67
2022/01/22 02:37:58;;;;;;;15.87;12.17;;;6.70;99.90;;;;;;5033109;28;20197;-68
2022/01/22 02:40:31;;;;;;;17.83;12.30;;;6.70;99.90;;;;;;5033297;28;20166;-68
2022/01/22 02:42:59;;;;;;;18.43;12.40;;;6.70;99.90;;;;;;5033242;28;20182;-67
2022/01/22 02:45:24;;;;;;;19.47;12.87;;;6.80;99.90;;;;;;5033067;28;20198;-68
2022/01/22 02:47:51;;;;;;;14.43;12.33;;;6.80;99.90;;;;;;5032610;28;20217;-68
2022/01/22 02:50:18;;;;;;;19.17;13.30;;;6.90;99.90;;;;;;5033226;28;20205;-68
2022/01/22 02:52:45;;;;;;;18.17;12.70;;;6.90;99.90;;;;;;5033153;28;20185;-68
2022/01/22 02:55:12;;;;;;;20.40;12.60;;;6.80;99.90;;;;;;5032994;28;20162;-68
2022/01/22 02:57:41;;;;;;;18.23;13.17;;;6.70;99.90;;;;;;5033045;28;20166;-68
2022/01/22 03:00:11;;;;;;;19.00;12.90;;;6.80;99.90;;;;;;5033056;28;20173;-68
2022/01/22 03:02:37;;;;;;;18.83;12.97;;;6.90;99.90;;;;;;5032722;28;20196;-69
2022/01/22 03:05:05;;;;;;;18.73;12.67;;;6.80;99.90;;;;;;5033051;28;20161;-69
2022/01/22 03:07:31;;;;;;;19.17;13.07;;;6.90;99.90;;;;;;5032942;28;20560;-68
2022/01/22 03:10:01;;;;;;;21.43;13.50;;;7.00;99.90;;;;;;5032859;28;20174;-68
2022/01/22 03:27:57;;;;;;;17.10;13.50;;;7.00;99.90;;;;;;5032492;28;20364;-68
2022/01/22 03:30:23;;;;;;;17.93;13.13;;;6.90;99.90;;;;;;5032610;28;20204;-68
2022/01/22 03:32:52;;;;;;;25.07;14.97;;;6.80;99.90;;;;;;5032291;28;20223;-68
2022/01/22 03:37:51;;;;;;;22.77;14.10;;;6.90;99.90;;;;;;5034959;28;20573;-68
2022/01/22 03:40:17;;;;;;;22.73;14.37;;;7.00;99.90;;;;;;5036562;28;20166;-67
2022/01/22 03:42:42;;;;;;;19.43;13.40;;;6.90;99.90;;;;;;5036403;28;20710;-69
2022/01/22 03:45:11;;;;;;;22.07;14.93;;;6.80;99.90;;;;;;5036098;28;20280;-68
2022/01/22 03:47:37;;;;;;;19.60;14.40;;;6.90;99.90;;;;;;5035945;28;20556;-68
2022/01/22 03:50:05;;;;;;;22.00;15.53;;;6.90;99.90;;;;;;5036294;28;20212;-68
2022/01/22 03:52:30;;;;;;;20.07;14.93;;;6.90;99.90;;;;;;5036381;28;20219;-68
2022/01/22 03:54:56;;;;;;;21.57;15.27;;;6.90;99.90;;;;;;5036273;28;20174;-68
2022/01/22 03:57:23;;;;;;;20.00;14.77;;;6.90;99.90;;;;;;5036036;28;20533;-68
2022/01/22 03:59:50;;;;;;;21.80;15.27;;;7.00;99.90;;;;;;5036069;28;20364;-68
2022/01/22 04:04:47;;;;;;;24.07;15.57;;;7.00;99.90;;;;;;5036384;28;20181;-68
2022/01/22 04:09:59;;;;;;;24.67;15.97;;;7.10;99.90;;;;;;5036142;28;20162;-68
2022/01/22 04:12:50;;;;;;;25.00;16.03;;;7.10;99.90;;;;;;5035578;28;20181;-68
2022/01/22 04:15:17;;;;;;;27.03;17.23;;;7.10;99.90;;;;;;5035235;28;20170;-68
2022/01/22 04:25:55;;;;;;;24.70;16.83;;;6.90;99.90;;;;;;5036261;28;20260;-68
2022/01/22 04:28:21;;;;;;;24.67;17.93;;;7.00;99.90;;;;;;5035468;28;20210;-68
2022/01/22 04:30:46;;;;;;;35.70;18.00;;;7.10;99.90;;;;;;5034893;28;20545;-67
2022/01/22 04:33:12;;;;;;;26.07;18.47;;;7.10;99.90;;;;;;5035347;28;20170;-68
2022/01/22 04:35:38;;;;;;;25.37;17.87;;;7.10;99.90;;;;;;5035395;28;20260;-67
2022/01/22 04:38:04;;;;;;;26.87;18.87;;;7.10;99.90;;;;;;5035658;28;20648;-68
2022/01/22 04:40:29;;;;;;;31.00;19.83;;;7.10;99.90;;;;;;5035351;28;20178;-68
2022/01/22 04:42:56;;;;;;;32.07;18.73;;;7.10;99.90;;;;;;5034007;28;20231;-68
2022/01/22 04:55:47;;;;;;;28.00;19.90;;;7.20;99.90;;;;;;5035041;28;20687;-67
2022/01/22 04:58:12;;;;;;;32.33;20.83;;;7.20;99.90;;;;;;5034424;28;20264;-67
2022/01/22 05:00:40;;;;;;;32.23;20.90;;;7.20;99.90;;;;;;5035194;28;20185;-68
2022/01/22 05:03:09;;;;;;;28.07;19.50;;;7.20;99.90;;;;;;5035119;28;20170;-68
2022/01/22 05:05:35;;;;;;;31.03;20.57;;;7.10;99.90;;;;;;5034903;28;20215;-69
2022/01/22 05:08:01;;;;;;;32.23;20.57;;;7.10;99.90;;;;;;5033265;28;20294;-68
2022/01/22 05:10:27;;;;;;;27.77;19.33;;;7.00;99.90;;;;;;5033426;28;20170;-68
2022/01/22 05:12:53;;;;;;;31.73;20.33;;;7.00;99.90;;;;;;5034036;28;20174;-69
2022/01/22 05:15:20;;;;;;;30.27;20.03;;;7.10;99.90;;;;;;5034588;28;20641;-68
2022/01/22 05:17:47;;;;;;;33.53;20.53;;;7.00;99.90;;;;;;5034621;28;20174;-69
2022/01/22 05:20:21;;;;;;;33.13;19.87;;;7.00;99.90;;;;;;5034640;28;20181;-69
2022/01/22 05:22:59;;;;;;;30.07;20.67;;;6.90;99.90;;;;;;5034692;28;20208;-68
2022/01/22 05:25:32;;;;;;;28.93;19.97;;;7.00;99.90;;;;;;5033223;28;20723;-68
2022/01/22 05:38:32;;;;;;;32.80;21.77;;;7.20;99.90;;;;;;5034615;28;20184;-67
2022/01/22 05:40:57;;;;;;;33.00;21.30;;;7.20;99.90;;;;;;5034055;28;20177;-67
2022/01/22 05:43:23;;;;;;;32.20;21.67;;;7.30;99.90;;;;;;5033383;28;20174;-69
2022/01/22 05:45:48;;;;;;;33.93;21.53;;;7.30;99.90;;;;;;5034114;28;20276;-68
2022/01/22 05:48:14;;;;;;;30.47;20.63;;;7.20;99.90;;;;;;5033445;28;20296;-68
2022/01/22 06:02:00;;;;;;;32.30;20.77;;;7.40;99.90;;;;;;5051916;28;20184;-68
2022/01/22 06:04:26;;;;;;;31.37;22.03;;;7.40;99.90;;;;;;5051519;28;20181;-68
2022/01/22 06:06:52;;;;;;;34.17;21.20;;;7.30;99.90;;;;;;5051335;28;20672;-68
2022/01/22 06:09:17;;;;;;;32.33;21.73;;;7.20;99.90;;;;;;5051147;28;20197;-68
2022/01/22 06:11:58;;;;;;;35.80;22.27;;;7.30;99.90;;;;;;5050954;28;20177;-67
2022/01/22 06:14:24;;;;;;;38.23;24.03;;;7.30;99.90;;;;;;5051109;28;20188;-68
2022/01/22 06:16:50;;;;;;;34.03;22.43;;;7.30;99.90;;;;;;5050919;28;20189;-67
2022/01/22 06:19:16;;;;;;;39.10;22.53;;;7.20;99.90;;;;;;5051263;28;20546;-68
2022/01/22 06:21:42;;;;;;;38.77;23.53;;;7.20;99.90;;;;;;5050983;28;20185;-68
2022/01/22 06:24:07;;;;;;;33.70;23.43;;;7.20;99.90;;;;;;5050982;28;20181;-68
2022/01/22 06:26:35;;;;;;;35.97;22.53;;;7.30;99.90;;;;;;5050385;28;20220;-69
2022/01/22 06:29:02;;;;;;;36.73;22.60;;;7.30;99.90;;;;;;5043578;28;20279;-68
2022/01/22 06:31:27;;;;;;;35.40;23.33;;;7.40;99.90;;;;;;5033320;28;20197;-68
2022/01/22 06:33:53;;;;;;;32.03;22.57;;;7.40;99.90;;;;;;5033613;28;20220;-68
2022/01/22 06:36:19;;;;;;;32.43;21.57;;;7.40;99.90;;;;;;5032989;28;20541;-68
2022/01/22 06:38:44;;;;;;;34.63;22.87;;;7.30;99.90;;;;;;5033163;28;20544;-69
2022/01/22 06:43:54;;;;;;;33.13;22.13;;;7.40;99.90;;;;;;5033443;28;20276;-68
2022/01/22 06:46:20;;;;;;;34.57;21.90;;;7.40;99.90;;;;;;5033331;28;20205;-68
2022/01/22 06:48:45;;;;;;;35.87;22.43;;;7.40;99.90;;;;;;5032419;28;20220;-68
2022/01/22 06:51:11;;;;;;;37.53;23.27;;;7.40;99.90;;;;;;5033033;28;20633;-68
2022/01/22 06:53:40;;;;;;;32.83;22.67;;;7.40;99.90;;;;;;5032585;28;20178;-68
2022/01/22 06:56:07;;;;;;;38.53;23.03;;;7.40;99.90;;;;;;5032006;28;20166;-68
2022/01/22 06:58:33;;;;;;;40.03;23.23;;;7.40;99.90;;;;;;5032861;28;20239;-68
2022/01/22 07:00:59;;;;;;;36.90;23.43;;;7.30;99.90;;;;;;5032553;28;20710;-68
2022/01/22 07:03:25;;;;;;;35.20;22.67;;;7.20;99.90;;;;;;5032872;28;20231;-68
2022/01/22 07:05:51;;;;;;;35.80;22.73;;;7.10;99.90;;;;;;5032348;28;20170;-68
2022/01/22 07:08:16;;;;;;;35.00;23.10;;;7.20;99.90;;;;;;5032764;28;20344;-68
2022/01/22 07:10:42;;;;;;;33.53;22.43;;;7.30;99.90;;;;;;5032400;28;20187;-68
2022/01/22 07:13:08;;;;;;;40.37;23.70;;;7.30;99.90;;;;;;5035397;28;20178;-68
2022/01/22 07:15:34;;;;;;;37.77;23.37;;;7.40;99.90;;;;;;5035088;28;20189;-68
2022/01/22 07:18:01;;;;;;;36.13;22.73;;;7.50;99.90;;;;;;5036834;28;20213;-69
2022/01/22 07:20:29;;;;;;;32.87;21.33;;;7.50;99.90;;;;;;5036397;28;20181;-69
2022/01/22 07:25:24;;;;;;;35.50;22.57;;;7.30;99.90;;;;;;5036039;28;20174;-68
2022/01/22 07:27:50;;;;;;;36.83;23.30;;;7.30;99.90;;;;;;5035692;28;20240;-69
2022/01/22 07:30:16;;;;;;;35.13;23.50;;;7.30;99.90;;;;;;5036414;28;20181;-70
2022/01/22 07:32:43;;;;;;;39.93;22.83;;;7.30;99.90;;;;;;5036519;28;20201;-70
2022/01/22 07:35:13;;;;;;;31.93;21.93;;;7.30;99.90;;;;;;5036291;28;20276;-70
2022/01/22 07:37:39;;;;;;;43.57;23.30;;;7.30;99.90;;;;;;5034644;28;20557;-69
2022/01/22 07:40:07;;;;;;;35.40;23.17;;;7.40;99.90;;;;;;5036242;28;20170;-68
2022/01/22 07:42:32;;;;;;;36.17;23.00;;;7.30;99.90;;;;;;5036023;28;20170;-69
2022/01/22 07:44:58;;;;;;;32.50;22.33;;;7.30;99.90;;;;;;5036068;28;20198;-68
2022/01/22 07:47:24;;;;;;;37.80;22.43;;;7.30;99.90;;;;;;5034079;28;20217;-69
2022/01/22 07:49:49;;;;;;;38.03;22.40;;;7.30;99.90;;;;;;5035875;28;20178;-68
2022/01/22 07:52:15;;;;;;;33.20;22.13;;;7.30;99.90;;;;;;5035665;28;20196;-69
2022/01/22 07:54:41;;;;;;;34.03;22.13;;;7.40;99.90;;;;;;5036111;28;20177;-69
2022/01/22 07:57:06;;;;;;;34.30;21.93;;;7.40;99.90;;;;;;5035270;28;20224;-69
2022/01/22 07:59:35;;;;;;;38.23;22.80;;;7.50;99.90;;;;;;5035939;28;20504;-68
2022/01/22 08:02:05;;;;;;;29.80;21.57;;;7.50;99.90;;;;;;5036156;28;20224;-68
2022/01/22 08:04:31;;;;;;;37.17;21.60;;;7.50;99.90;;;;;;5035741;28;20158;-69
2022/01/22 08:06:59;;;;;;;36.10;21.53;;;7.40;99.90;;;;;;5035290;28;20622;-68
2022/01/22 08:09:26;;;;;;;36.10;22.10;;;7.50;99.90;;;;;;5035355;28;20181;-69
2022/01/22 08:11:51;;;;;;;34.07;22.27;;;7.50;99.90;;;;;;5035707;28;20166;-68
2022/01/22 08:14:17;;;;;;;34.23;22.30;;;7.60;99.90;;;;;;5035962;28;20190;-68
2022/01/22 08:16:52;;;;;;;35.70;22.57;;;7.70;99.90;;;;;;5035726;28;20700;-69
2022/01/22 08:19:18;;;;;;;35.10;22.40;;;7.70;99.90;;;;;;5035379;28;20668;-69
2022/01/22 08:21:45;;;;;;;32.90;22.33;;;7.80;99.90;;;;;;5035085;28;20170;-69
2022/01/22 08:24:12;;;;;;;33.77;22.47;;;7.70;99.90;;;;;;5035219;28;20243;-69
2022/01/22 08:26:43;;;;;;;41.00;21.93;;;7.70;99.90;;;;;;5034958;28;20234;-70
2022/01/22 08:29:09;;;;;;;32.17;21.30;;;7.80;99.90;;;;;;5035248;28;20764;-68
2022/01/22 08:36:48;;;;;;;32.80;22.53;;;7.90;99.90;;;;;;5035103;28;20665;-69
2022/01/22 08:39:16;;;;;;;35.37;22.63;;;7.90;99.90;;;;;;5035174;28;20188;-70
2022/01/22 08:41:43;;;;;;;36.97;22.53;;;7.90;99.90;;;;;;5035439;28;20582;-70
2022/01/22 08:44:10;;;;;;;34.67;22.67;;;7.80;99.90;;;;;;5034742;28;20293;-69
2022/01/22 08:46:36;;;;;;;32.73;22.57;;;7.70;99.90;;;;;;5035262;28;20205;-69
2022/01/22 08:49:06;;;;;;;35.10;22.60;;;7.80;99.90;;;;;;5034348;28;20220;-69
2022/01/22 08:51:34;;;;;;;33.97;21.50;;;7.70;99.90;;;;;;5034303;28;20257;-70
2022/01/22 08:54:01;;;;;;;32.93;21.53;;;7.80;99.90;;;;;;5034720;28;20192;-70
2022/01/22 08:56:28;;;;;;;32.47;20.90;;;7.90;99.90;;;;;;5033604;28;20634;-69
2022/01/22 08:58:54;;;;;;;34.23;21.50;;;7.90;99.90;;;;;;5034581;28;20202;-69
2022/01/22 09:01:20;;;;;;;32.10;22.13;;;8.00;99.90;;;;;;5034359;28;20586;-69
2022/01/22 09:03:48;;;;;;;33.33;21.37;;;8.00;99.90;;;;;;5034876;28;20177;-69
2022/01/22 09:06:14;;;;;;;31.27;21.37;;;8.10;99.90;;;;;;5033854;28;20170;-69
2022/01/22 09:08:40;;;;;;;32.97;22.03;;;8.10;99.90;;;;;;5034552;28;20201;-70
2022/01/22 09:11:06;;;;;;;29.53;21.30;;;8.10;99.90;;;;;;5034490;28;20695;-69
2022/01/22 09:13:32;;;;;;;35.20;22.70;;;8.20;99.90;;;;;;5034512;28;20178;-69
2022/01/22 09:15:58;;;;;;;32.50;21.07;;;8.10;99.90;;;;;;5034417;28;20178;-69
2022/01/22 09:18:24;;;;;;;33.37;21.87;;;8.10;99.90;;;;;;5034447;28;20181;-69
2022/01/22 09:23:16;;;;;;;30.97;20.97;;;8.10;99.90;;;;;;5034600;28;20251;-69
2022/01/22 09:25:42;;;;;;;30.37;20.33;;;8.10;99.90;;;;;;5034496;28;20312;-69
2022/01/22 09:28:10;;;;;;;33.30;21.30;;;8.20;99.90;;;;;;5033760;28;20260;-68
2022/01/22 09:30:36;;;;;;;34.43;21.43;;;8.20;99.90;;;;;;5034206;28;20193;-69
2022/01/22 09:33:02;;;;;;;31.97;21.73;;;8.30;99.90;;;;;;5033993;28;20633;-68
2022/01/22 09:35:28;;;;;;;31.93;21.20;;;8.30;99.90;;;;;;5033048;28;20247;-68
2022/01/22 09:37:53;;;;;;;35.13;20.57;;;8.40;99.90;;;;;;5033993;28;20212;-69
2022/01/22 09:40:20;;;;;;;36.23;21.47;;;8.40;99.90;;;;;;5034220;28;20220;-69
2022/01/22 09:42:46;;;;;;;31.33;21.30;;;8.40;99.90;;;;;;5033475;28;20170;-70
2022/01/22 09:45:15;;;;;;;32.50;21.57;;;8.40;99.90;;;;;;5034199;28;20197;-69
2022/01/22 09:47:45;;;;;;;30.77;20.03;;;8.40;99.90;;;;;;5033756;28;20197;-69
2022/01/22 09:50:11;;;;;;;32.77;20.47;;;8.30;99.90;;;;;;5032753;28;20180;-69
2022/01/22 09:52:38;;;;;;;31.60;20.90;;;8.20;99.90;;;;;;5034084;28;20240;-69
2022/01/22 09:55:05;;;;;;;35.67;22.87;;;8.40;99.90;;;;;;5033547;28;20185;-69
2022/01/22 09:57:33;;;;;;;28.17;20.47;;;8.30;99.90;;;;;;5032823;28;20166;-69
2022/01/22 09:59:59;;;;;;;30.13;20.87;;;8.40;99.90;;;;;;5033158;28;20542;-69
2022/01/22 10:02:25;;;;;;;31.63;21.40;;;8.40;99.90;;;;;;5033158;28;20177;-69
2022/01/22 10:04:52;;;;;;;32.10;21.73;;;8.40;99.90;;;;;;5033246;28;20177;-69
2022/01/22 10:07:26;;;;;;;31.20;21.03;;;8.20;99.90;;;;;;5033101;28;20194;-69
2022/01/22 10:09:55;;;;;;;29.27;20.00;;;8.20;99.90;;;;;;5033347;28;20524;-69
2022/01/22 10:12:22;;;;;;;28.80;20.80;;;8.40;99.90;;;;;;5033116;28;20166;-69
2022/01/22 10:15:15;;;;;;;31.43;21.73;;;8.40;99.90;;;;;;5033203;28;20322;-69
2022/01/22 10:17:44;;;;;;;30.57;21.27;;;8.60;99.90;;;;;;5032650;28;20216;-68
2022/01/22 10:20:25;;;;;;;34.87;21.77;;;8.60;99.90;;;;;;5033314;28;20173;-68
2022/01/22 10:22:52;;;;;;;35.37;21.67;;;8.50;99.90;;;;;;5032753;28;20193;-69
2022/01/22 10:25:34;;;;;;;40.77;22.90;;;8.50;99.90;;;;;;5033314;28;20170;-69
2022/01/22 10:28:14;;;;;;;30.47;20.83;;;8.50;99.90;;;;;;5031320;28;20229;-70
2022/01/22 10:30:43;;;;;;;34.63;21.03;;;8.50;99.90;;;;;;5032810;28;20184;-69
2022/01/22 10:33:28;;;;;;;31.73;21.30;;;8.60;99.90;;;;;;5032813;28;20174;-69
2022/01/22 10:36:06;;;;;;;32.47;21.43;;;8.50;99.90;;;;;;5033117;28;20178;-69
2022/01/22 10:38:50;;;;;;;31.60;22.03;;;8.50;99.90;;;;;;5032907;28;20197;-69
2022/01/22 10:41:18;;;;;;;38.97;22.60;;;8.60;99.90;;;;;;5032971;28;20173;-69
2022/01/22 10:43:55;;;;;;;32.03;22.63;;;8.50;99.90;;;;;;5032432;28;20180;-70
2022/01/22 10:46:33;;;;;;;35.23;23.20;;;8.70;99.90;;;;;;5031198;28;20235;-70
2022/01/22 10:49:10;;;;;;;33.23;22.53;;;8.60;99.90;;;;;;5032860;28;20214;-69
2022/01/22 10:51:56;;;;;;;31.77;21.57;;;8.40;99.90;;;;;;5032727;28;20214;-69
2022/01/22 10:54:25;;;;;;;32.53;23.50;;;8.20;99.90;;;;;;5032586;28;20224;-69
2022/01/22 10:56:52;;;;;;;33.77;23.03;;;8.20;99.90;;;;;;5032160;28;20170;-68
2022/01/22 10:59:22;;;;;;;35.97;23.33;;;8.10;99.90;;;;;;5031968;28;20699;-69
2022/01/22 11:01:51;;;;;;;38.73;24.70;;;8.20;99.90;;;;;;5031748;28;20181;-69
2022/01/22 11:04:24;;;;;;;34.40;22.00;;;8.30;99.90;;;;;;5031879;28;20201;-69
2022/01/22 11:07:03;;;;;;;34.30;22.53;;;8.20;99.90;;;;;;5031838;28;20587;-69
2022/01/22 11:09:32;;;;;;;35.47;21.90;;;8.30;99.90;;;;;;5032404;28;20193;-68
2022/01/22 11:11:59;;;;;;;31.83;21.23;;;8.40;99.90;;;;;;5032389;28;20642;-69
2022/01/22 11:14:28;;;;;;;33.07;22.10;;;8.40;99.90;;;;;;5032693;28;20219;-69
2022/01/22 11:16:54;;;;;;;32.03;20.33;;;8.40;99.90;;;;;;5031597;28;20170;-69
2022/01/22 11:19:22;;;;;;;30.87;19.23;;;8.60;99.90;;;;;;5032327;28;20166;-69
2022/01/22 11:21:53;;;;;;;28.80;19.93;;;8.40;99.90;;;;;;5031846;28;20692;-69
2022/01/22 11:24:24;;;;;;;30.17;19.97;;;8.50;99.90;;;;;;5032598;28;20247;-69
2022/01/22 11:26:55;;;;;;;31.13;21.03;;;8.30;99.90;;;;;;5032136;28;20225;-69
2022/01/22 11:29:28;;;;;;;31.10;20.60;;;8.10;99.90;;;;;;5031769;28;20224;-70
2022/01/22 11:31:56;;;;;;;32.23;20.37;;;8.30;99.90;;;;;;5032466;28;20178;-70
2022/01/22 11:34:25;;;;;;;35.17;21.47;;;8.30;99.90;;;;;;5031743;28;20185;-69
2022/01/22 11:36:57;;;;;;;31.77;22.40;;;8.30;99.90;;;;;;5032221;28;20193;-69
2022/01/22 11:39:25;;;;;;;33.17;22.53;;;8.20;99.90;;;;;;5032285;28;20496;-69
2022/01/22 11:41:59;;;;;;;54.93;36.93;;;8.30;99.90;;;;;;5031765;28;20541;-69
2022/01/22 11:44:46;;;;;;;36.30;23.33;;;8.20;99.90;;;;;;5031547;28;20178;-70
2022/01/22 11:47:15;;;;;;;49.93;28.80;;;8.20;99.90;;;;;;5032064;28;20205;-69
2022/01/22 11:50:00;;;;;;;36.83;24.20;;;8.10;99.90;;;;;;5031717;28;20182;-69
2022/01/22 11:52:29;;;;;;;36.13;24.53;;;8.10;99.90;;;;;;5031880;28;20170;-69
2022/01/22 11:54:59;;;;;;;38.87;24.37;;;8.10;99.90;;;;;;5031509;28;20177;-69
2022/01/22 11:57:27;;;;;;;35.20;22.83;;;8.20;99.90;;;;;;5031286;28;20650;-70
2022/01/22 12:00:14;;;;;;;33.47;22.93;;;8.10;99.90;;;;;;5035647;28;20181;-69
2022/01/22 12:02:40;;;;;;;40.17;23.80;;;8.10;99.90;;;;;;5036115;28;20657;-69
2022/01/22 12:05:07;;;;;;;31.53;22.80;;;8.20;99.90;;;;;;5034861;28;20200;-69
2022/01/22 12:07:35;;;;;;;37.17;24.83;;;8.20;99.90;;;;;;5035192;28;20194;-70
2022/01/22 12:14:27;;;;;;;34.80;24.17;;;8.20;99.90;;;;;;5035053;28;20174;-69
2022/01/22 12:16:06;;;;;;;35.43;22.53;;;8.20;99.90;;;;;;5035683;28;20647;-69
2022/01/22 12:18:35;;;;;;;35.33;23.03;;;8.20;99.90;;;;;;5034855;28;20178;-70
2022/01/22 12:23:29;;;;;;;35.67;24.17;;;8.20;99.90;;;;;;5035567;28;20256;-68
2022/01/22 12:25:56;;;;;;;34.30;23.13;;;8.10;99.90;;;;;;5034866;28;20229;-70
2022/01/22 12:28:39;;;;;;;34.43;23.03;;;8.20;99.90;;;;;;5034459;28;20649;-69
2022/01/22 12:31:27;;;;;;;35.57;23.93;;;8.40;99.90;;;;;;5035386;28;20373;-69
2022/01/22 12:33:54;;;;;;;37.07;23.53;;;8.60;99.90;;;;;;5035044;28;20162;-70
2022/01/22 12:36:27;;;;;;;35.30;24.33;;;8.70;99.90;;;;;;5035303;28;20252;-68
2022/01/22 12:39:11;;;;;;;33.67;23.83;;;8.70;99.90;;;;;;5035039;28;20177;-69
2022/01/22 12:44:25;;;;;;;32.63;22.70;;;8.50;99.90;;;;;;5034165;28;20518;-69
2022/01/22 12:47:02;;;;;;;34.97;23.63;;;8.50;99.90;;;;;;5034720;28;20174;-69
2022/01/22 12:49:29;;;;;;;36.60;23.93;;;8.50;99.90;;;;;;5034121;28;20190;-70
2022/01/22 12:52:00;;;;;;;39.20;25.33;;;8.60;99.90;;;;;;5035331;28;20178;-70
2022/01/22 12:54:31;;;;;;;38.67;23.60;;;8.50;99.90;;;;;;5034650;28;20170;-70
2022/01/22 12:57:12;;;;;;;40.73;25.17;;;8.40;99.90;;;;;;5033807;28;20167;-69
2022/01/22 13:00:08;;;;;;;38.53;24.40;;;8.40;99.90;;;;;;5034177;28;20269;-69
2022/01/22 13:02:45;;;;;;;54.03;35.50;;;8.50;99.90;;;;;;5034687;28;20246;-70
2022/01/22 13:05:14;;;;;;;78.70;45.00;;;8.50;99.90;;;;;;5033998;28;20267;-70
2022/01/22 13:07:51;;;;;;;42.23;26.57;;;8.60;99.90;;;;;;5035066;28;20500;-70
2022/01/22 13:10:17;;;;;;;39.27;25.67;;;8.50;99.90;;;;;;5032844;28;20166;-68
2022/01/22 13:12:45;;;;;;;38.40;25.30;;;8.60;99.90;;;;;;5034079;28;20173;-69
2022/01/22 13:15:14;;;;;;;36.97;24.67;;;8.70;99.90;;;;;;5034596;28;20184;-70
2022/01/22 13:17:40;;;;;;;35.37;25.23;;;8.70;99.90;;;;;;5033819;28;20178;-69
2022/01/22 13:20:07;;;;;;;35.50;24.60;;;8.50;99.90;;;;;;5034045;28;20181;-70
2022/01/22 13:22:37;;;;;;;37.17;24.27;;;8.60;99.90;;;;;;5033718;28;20232;-68
2022/01/22 13:25:12;;;;;;;34.80;24.63;;;8.60;99.90;;;;;;5033502;28;20648;-69
2022/01/22 13:27:40;;;;;;;36.63;24.53;;;8.40;99.90;;;;;;5033735;28;20225;-69
2022/01/22 13:30:10;;;;;;;39.67;25.43;;;8.40;99.90;;;;;;5033633;28;20167;-69
2022/01/22 13:45:01;;;;;;;38.83;24.97;;;8.60;99.90;;;;;;5032475;28;20696;-69
2022/01/22 13:49:03;;;;;;;39.73;25.77;;;8.40;99.90;;;;;;5033246;28;20309;-69
2022/01/22 13:51:29;;;;;;;40.73;26.60;;;8.10;99.90;;;;;;5032983;28;20174;-69
2022/01/22 13:53:56;;;;;;;59.93;42.30;;;8.10;99.90;;;;;;5033183;28;20177;-69
2022/01/22 13:56:56;;;;;;;35.30;25.83;;;8.10;99.90;;;;;;5031909;28;20174;-69
2022/01/22 13:59:23;;;;;;;37.93;25.53;;;8.20;99.90;;;;;;5033904;28;20173;-69
2022/01/22 14:02:06;;;;;;;40.63;28.80;;;8.30;99.90;;;;;;5033256;28;20249;-69
2022/01/22 14:04:39;;;;;;;43.07;26.60;;;8.20;99.90;;;;;;5033462;28;20168;-69
2022/01/22 14:07:12;;;;;;;38.77;26.30;;;8.20;99.90;;;;;;5032256;28;20201;-69
2022/01/22 14:09:38;;;;;;;37.53;25.47;;;8.00;99.90;;;;;;5032286;28;20185;-68
2022/01/22 14:12:14;;;;;;;36.67;25.87;;;7.90;99.90;;;;;;5033007;28;20180;-69
2022/01/22 14:15:01;;;;;;;39.93;28.23;;;7.90;99.90;;;;;;5033258;28;20322;-69
2022/01/22 14:17:32;;;;;;;44.40;30.40;;;8.00;99.90;;;;;;5032754;28;20303;-70
2022/01/22 14:19:59;;;;;;;42.00;26.70;;;8.10;99.90;;;;;;5032354;28;20201;-70
2022/01/22 14:22:25;;;;;;;42.60;27.00;;;8.10;99.90;;;;;;5032515;28;20209;-69
2022/01/22 14:25:08;;;;;;;37.70;25.57;;;8.10;99.90;;;;;;5032262;28;20253;-69
2022/01/22 14:27:34;;;;;;;36.37;25.57;;;8.00;99.90;;;;;;5032179;28;20256;-69
2022/01/22 14:29:59;;;;;;;43.00;28.93;;;8.00;99.90;;;;;;5032874;28;20637;-71
2022/01/22 14:32:27;;;;;;;38.83;26.20;;;7.90;99.90;;;;;;5030898;28;20185;-70
2022/01/22 14:34:53;;;;;;;40.50;26.70;;;8.00;99.90;;;;;;5031994;28;20272;-69
2022/01/22 14:37:31;;;;;;;39.13;25.07;;;8.10;99.90;;;;;;5032261;28;20205;-70
2022/01/22 14:45:23;;;;;;;35.20;22.57;;;7.90;99.90;;;;;;5032084;28;20676;-69
2022/01/22 14:47:58;;;;;;;32.03;22.60;;;7.70;99.90;;;;;;5032264;28;20247;-68
2022/01/22 14:50:25;;;;;;;31.27;23.20;;;7.70;99.90;;;;;;5032589;28;20173;-69
2022/01/22 14:52:59;;;;;;;34.73;23.10;;;7.70;99.90;;;;;;5031846;28;20181;-69
2022/01/22 14:55:25;;;;;;;33.80;22.23;;;7.80;99.90;;;;;;5031839;28;20181;-68
2022/01/22 14:57:53;;;;;;;33.33;22.73;;;8.00;99.90;;;;;;5032053;28;20276;-70
2022/01/22 15:00:20;;;;;;;31.77;22.20;;;8.10;99.90;;;;;;5032350;28;20206;-70
2022/01/22 15:02:46;;;;;;;32.57;23.07;;;8.10;99.90;;;;;;5032130;28;20182;-70
2022/01/22 15:05:14;;;;;;;32.67;22.97;;;8.10;99.90;;;;;;5030825;28;20633;-69
2022/01/22 15:07:41;;;;;;;33.30;22.27;;;8.10;99.90;;;;;;5031759;28;20210;-69